Time;durP1;ratioP1;P1;durP2;ratioP2;P2;SDS_P1;SDS_P2;PMS_P1;PMS_P2;Temp;Humidity;BMP_temperature;BMP_pressure;BME280_temperature;BME280_humidity;BME280_pressure;Samples;Min_cycle;Max_cycle;Signal;HPM_P1;HPM_P2
2021/12/14 00:01:39;;;;;;;0.57;0.50;;;21.30;56.70;;;;;;5158823;27;20042;-43
2021/12/14 00:04:11;;;;;;;0.50;0.50;;;21.30;56.70;;;;;;5162123;27;20114;-46
2021/12/14 00:06:37;;;;;;;0.43;0.32;;;21.40;56.70;;;;;;5162263;27;20052;-45
2021/12/14 00:09:05;;;;;;;0.40;0.40;;;21.30;56.50;;;;;;5143205;27;20023;-47
2021/12/14 00:16:40;;;;;;;0.80;0.45;;;21.20;56.20;;;;;;5160752;27;20038;-44
2021/12/14 00:19:06;;;;;;;0.40;0.40;;;21.30;56.60;;;;;;5161794;27;20038;-45
2021/12/14 00:21:32;;;;;;;0.75;0.50;;;21.30;56.60;;;;;;5161081;27;20050;-45
2021/12/14 00:24:07;;;;;;;0.40;0.40;;;21.30;56.60;;;;;;5162040;27;20081;-45
2021/12/14 00:26:41;;;;;;;0.43;0.43;;;21.30;56.50;;;;;;5161668;27;20094;-47
2021/12/14 00:29:08;;;;;;;0.68;0.60;;;21.30;56.20;;;;;;5161606;27;20026;-46
2021/12/14 00:31:36;;;;;;;0.55;0.50;;;21.30;56.10;;;;;;5161392;27;20039;-46
2021/12/14 00:34:04;;;;;;;1.23;0.60;;;21.20;56.40;;;;;;5160543;27;20039;-46
2021/12/14 00:36:30;;;;;;;0.80;0.55;;;21.30;56.50;;;;;;5164741;27;20038;-46
2021/12/14 00:38:57;;;;;;;1.98;0.70;;;21.30;56.50;;;;;;5165123;27;20037;-47
2021/12/14 00:41:30;;;;;;;0.70;0.60;;;21.30;56.50;;;;;;5161021;27;20030;-45
2021/12/14 00:43:56;;;;;;;1.58;0.50;;;21.30;56.30;;;;;;5159799;27;20094;-45
2021/12/14 00:46:22;;;;;;;0.52;0.45;;;21.30;56.10;;;;;;5159105;27;20121;-44
2021/12/14 00:48:49;;;;;;;0.65;0.50;;;21.20;56.00;;;;;;5159916;27;20101;-48
2021/12/14 00:51:17;;;;;;;0.60;0.50;;;21.20;56.30;;;;;;5159168;27;20906;-48
2021/12/14 00:53:43;;;;;;;1.02;0.60;;;21.30;56.40;;;;;;5159815;27;20034;-46
2021/12/14 00:56:10;;;;;;;0.50;0.47;;;21.30;56.50;;;;;;5160082;27;20041;-45
2021/12/14 00:58:36;;;;;;;;;;;21.30;56.40;;;;;;5160694;27;20026;-46
2021/12/14 01:01:22;;;;;;;1.05;0.60;;;21.20;55.90;;;;;;5160089;27;19919;-45
2021/12/14 01:03:50;;;;;;;1.52;0.40;;;21.20;55.90;;;;;;5157602;27;20034;-45
2021/12/14 01:06:16;;;;;;;0.60;0.50;;;21.20;56.00;;;;;;5159796;27;20073;-44
2021/12/14 01:08:44;;;;;;;0.52;0.50;;;21.20;56.30;;;;;;5159647;27;20023;-46
2021/12/14 01:11:19;;;;;;;0.50;0.40;;;21.20;56.20;;;;;;5159489;27;20053;-46
2021/12/14 01:13:55;;;;;;;0.85;0.50;;;21.30;56.30;;;;;;5159555;27;20026;-45
2021/12/14 01:16:47;;;;;;;0.45;0.40;;;21.30;56.30;;;;;;5159152;27;20041;-46
2021/12/14 01:19:19;;;;;;;0.50;0.40;;;21.20;55.90;;;;;;5164269;27;20026;-45
2021/12/14 01:24:52;;;;;;;0.60;0.50;;;21.10;56.10;;;;;;5164794;27;20019;-46
2021/12/14 01:27:16;;;;;;;0.63;0.50;;;21.20;56.20;;;;;;5164602;27;20034;-46
2021/12/14 01:29:43;;;;;;;0.73;0.65;;;21.30;56.20;;;;;;5163507;27;20030;-47
2021/12/14 01:32:10;;;;;;;0.73;0.60;;;21.30;56.20;;;;;;5165102;27;20030;-44
2021/12/14 01:34:37;;;;;;;0.65;0.60;;;21.20;55.80;;;;;;5165055;27;20035;-44
2021/12/14 01:37:10;;;;;;;0.93;0.63;;;21.20;55.80;;;;;;5164429;27;20094;-44
2021/12/14 01:40:00;;;;;;;0.90;0.50;;;21.10;55.70;;;;;;5164121;27;20055;-46
2021/12/14 01:42:28;;;;;;;1.00;0.52;;;21.10;56.10;;;;;;5163332;27;20031;-44
2021/12/14 01:45:19;;;;;;;0.57;0.40;;;21.20;56.00;;;;;;5165028;27;20030;-47
2021/12/14 01:47:54;;;;;;;0.55;0.50;;;21.20;56.10;;;;;;5152684;27;20035;-45
2021/12/14 01:50:47;;;;;;;0.77;0.50;;;21.20;55.90;;;;;;5162218;27;20034;-44
2021/12/14 01:53:14;;;;;;;0.60;0.50;;;21.20;55.70;;;;;;5162452;27;20043;-46
2021/12/14 01:55:41;;;;;;;2.58;0.40;;;21.10;55.60;;;;;;5164655;27;20104;-45
2021/12/14 01:58:08;;;;;;;0.68;0.50;;;21.10;56.00;;;;;;5163988;27;20030;-45
2021/12/14 02:00:34;;;;;;;;;;;21.10;56.60;;;;;;5154523;27;20048;-45
2021/12/14 02:03:04;;;;;;;0.95;0.50;;;21.20;56.00;;;;;;5059322;27;20051;-47
2021/12/14 02:05:35;;;;;;;1.15;0.55;;;21.20;56.00;;;;;;5058588;28;20025;-47
2021/12/14 02:08:04;;;;;;;0.90;0.57;;;21.10;55.60;;;;;;5126442;27;20025;-46
2021/12/14 02:10:35;;;;;;;1.25;0.57;;;21.10;55.60;;;;;;5059211;28;20041;-46
2021/12/14 02:13:01;;;;;;;0.55;0.55;;;21.10;55.70;;;;;;5059008;27;20029;-45
2021/12/14 02:15:31;;;;;;;0.95;0.70;;;21.10;55.90;;;;;;5058963;28;20025;-44
2021/12/14 02:17:59;;;;;;;0.85;0.60;;;21.10;55.90;;;;;;5058663;27;20029;-46
2021/12/14 02:20:28;;;;;;;1.38;0.65;;;21.20;56.00;;;;;;5057166;27;20025;-47
2021/12/14 02:22:55;;;;;;;0.80;0.50;;;21.20;55.80;;;;;;5058794;28;20169;-46
2021/12/14 02:25:21;;;;;;;0.60;0.60;;;21.10;55.50;;;;;;5056774;28;20033;-47
2021/12/14 02:27:50;;;;;;;0.85;0.60;;;21.10;55.50;;;;;;5058042;28;20058;-45
2021/12/14 02:30:19;;;;;;;0.55;0.47;;;21.10;55.80;;;;;;5058227;28;20033;-44
2021/12/14 02:32:45;;;;;;;0.60;0.50;;;21.10;55.90;;;;;;5058637;28;20029;-46
2021/12/14 02:35:14;;;;;;;0.77;0.60;;;21.20;55.80;;;;;;5058293;28;20033;-44
2021/12/14 02:38:01;;;;;;;1.08;0.60;;;21.20;55.90;;;;;;5058670;27;20037;-45
2021/12/14 02:41:17;;;;;;;1.30;0.77;;;21.20;55.50;;;;;;5056793;28;20021;-44
2021/12/14 02:43:42;;;;;;;0.52;0.52;;;21.10;55.30;;;;;;5055149;27;20048;-46
2021/12/14 02:46:16;;;;;;;1.25;0.80;;;21.00;55.40;;;;;;5060817;27;20045;-45
2021/12/14 02:48:46;;;;;;;0.80;0.55;;;21.00;55.70;;;;;;5058112;28;20025;-46
2021/12/14 02:51:18;;;;;;;0.80;0.60;;;21.10;55.80;;;;;;5057735;28;20037;-46
2021/12/14 02:53:45;;;;;;;0.80;0.60;;;21.10;55.70;;;;;;5057523;28;20036;-49
2021/12/14 02:56:16;;;;;;;;;;;21.20;55.80;;;;;;5058189;27;20052;-46
2021/12/14 02:58:42;;;;;;;0.93;0.70;;;21.20;55.40;;;;;;5057849;28;19921;-45
2021/12/14 03:01:09;;;;;;;0.80;0.80;;;21.10;55.30;;;;;;5092329;27;20086;-46
2021/12/14 03:03:35;;;;;;;1.48;0.88;;;21.00;55.30;;;;;;5163044;27;20023;-45
2021/12/14 03:06:02;;;;;;;1.50;0.83;;;21.00;55.60;;;;;;5162984;27;20023;-46
2021/12/14 03:08:29;;;;;;;1.00;0.68;;;21.10;56.30;;;;;;5162785;27;20273;-46
2021/12/14 03:11:10;;;;;;;1.15;0.80;;;21.10;55.60;;;;;;5162759;27;20055;-50
2021/12/14 03:13:46;;;;;;;1.77;0.70;;;21.20;55.70;;;;;;5163086;27;20022;-46
2021/12/14 03:16:19;;;;;;;0.63;0.50;;;21.10;55.30;;;;;;5162775;27;20039;-45
2021/12/14 03:18:47;;;;;;;2.15;0.82;;;21.10;55.30;;;;;;5143758;27;20030;-46
2021/12/14 03:21:22;;;;;;;1.00;0.73;;;21.00;55.30;;;;;;5160007;27;20034;-46
2021/12/14 03:24:08;;;;;;;1.05;0.70;;;21.00;55.60;;;;;;5162136;27;20698;-45
2021/12/14 03:26:36;;;;;;;1.27;0.77;;;21.10;55.60;;;;;;5162986;27;20054;-44
2021/12/14 03:29:08;;;;;;;1.13;0.80;;;21.20;55.70;;;;;;5162107;27;20030;-44
2021/12/14 03:31:36;;;;;;;2.85;0.90;;;21.20;55.30;;;;;;5143857;27;20023;-46
2021/12/14 03:34:09;;;;;;;0.82;0.70;;;21.10;55.20;;;;;;5162661;27;20111;-44
2021/12/14 03:36:39;;;;;;;1.25;0.70;;;21.00;55.20;;;;;;5162309;27;20043;-46
2021/12/14 03:39:24;;;;;;;1.70;0.80;;;21.00;55.50;;;;;;5161760;27;20033;-46
2021/12/14 03:42:00;;;;;;;1.17;0.90;;;21.00;55.60;;;;;;5162842;27;20041;-46
2021/12/14 03:44:28;;;;;;;1.35;1.02;;;21.10;55.50;;;;;;5162166;27;20030;-46
2021/12/14 03:46:55;;;;;;;1.20;0.73;;;21.10;55.50;;;;;;5162312;27;20019;-46
2021/12/14 03:49:22;;;;;;;;;;;21.10;55.10;;;;;;5162736;27;20022;-45
2021/12/14 03:51:49;;;;;;;1.40;0.90;;;21.00;55.10;;;;;;5162107;27;19902;-45
2021/12/14 03:54:17;;;;;;;2.47;1.25;;;21.00;55.10;;;;;;5162417;27;20030;-45
2021/12/14 03:56:44;;;;;;;1.80;1.10;;;21.00;55.40;;;;;;5162022;27;20835;-47
2021/12/14 03:59:10;;;;;;;2.17;1.20;;;21.00;55.50;;;;;;5161565;27;20026;-47
2021/12/14 04:01:38;;;;;;;1.40;0.98;;;21.10;55.40;;;;;;5162198;27;20437;-47
2021/12/14 04:04:14;;;;;;;1.30;1.15;;;21.10;55.60;;;;;;5161871;27;20015;-45
2021/12/14 04:06:40;;;;;;;1.90;1.00;;;21.10;55.20;;;;;;5161778;27;20027;-45
2021/12/14 04:09:08;;;;;;;2.00;1.17;;;21.10;55.10;;;;;;5162215;27;20088;-46
2021/12/14 04:11:35;;;;;;;1.83;1.00;;;21.00;55.00;;;;;;5161599;27;20549;-45
2021/12/14 04:14:01;;;;;;;1.90;1.20;;;21.00;55.20;;;;;;5142578;27;20115;-47
2021/12/14 04:16:27;;;;;;;3.08;1.40;;;21.00;55.40;;;;;;5162176;27;20063;-45
2021/12/14 04:18:55;;;;;;;1.98;1.30;;;21.10;55.30;;;;;;5163018;27;20053;-45
2021/12/14 04:21:21;;;;;;;1.95;1.25;;;21.10;55.30;;;;;;5160597;27;20058;-45
2021/12/14 04:23:49;;;;;;;2.10;1.50;;;21.10;55.30;;;;;;5161970;27;20029;-46
2021/12/14 04:26:15;;;;;;;1.83;1.17;;;21.10;54.90;;;;;;5162056;27;20574;-46
2021/12/14 04:28:53;;;;;;;1.57;1.40;;;21.00;55.40;;;;;;5162055;27;20031;-46
2021/12/14 04:31:19;;;;;;;2.20;1.58;;;20.90;55.00;;;;;;5160836;27;20278;-46
2021/12/14 04:33:49;;;;;;;2.13;1.40;;;21.00;55.30;;;;;;5161655;27;20072;-46
2021/12/14 04:36:18;;;;;;;2.75;1.40;;;21.00;55.20;;;;;;5159672;27;20034;-49
2021/12/14 04:38:51;;;;;;;2.40;1.30;;;21.10;55.20;;;;;;5159682;27;20094;-48
2021/12/14 04:52:21;;;;;;;2.45;1.63;;;20.90;55.10;;;;;;5159958;27;20076;-47
2021/12/14 04:55:06;;;;;;;3.05;1.38;;;21.00;55.10;;;;;;5161414;27;20019;-46
2021/12/14 04:57:36;;;;;;;2.47;1.40;;;21.10;55.10;;;;;;5161769;27;20094;-45
2021/12/14 05:00:28;;;;;;;2.15;1.55;;;21.10;54.80;;;;;;5161909;27;20030;-45
2021/12/14 05:02:56;;;;;;;2.00;1.50;;;20.90;54.80;;;;;;5035244;28;20056;-46
2021/12/14 05:05:28;;;;;;;2.50;1.65;;;20.90;54.80;;;;;;5036315;28;20022;-43
2021/12/14 05:10:43;;;;;;;2.85;1.70;;;21.00;55.00;;;;;;5036835;28;20030;-44
2021/12/14 05:13:09;;;;;;;2.05;1.63;;;20.90;54.60;;;;;;5103840;28;20029;-44
2021/12/14 05:15:39;;;;;;;2.75;1.85;;;20.80;54.50;;;;;;5036617;28;20190;-43
2021/12/14 05:18:11;;;;;;;3.60;1.83;;;20.70;54.60;;;;;;5036791;28;20026;-45
2021/12/14 05:20:43;;;;;;;3.38;1.88;;;20.60;54.80;;;;;;5036201;28;20037;-43
2021/12/14 05:23:10;;;;;;;2.10;1.80;;;20.60;54.80;;;;;;5039119;28;20029;-45
2021/12/14 05:25:38;;;;;;;4.20;2.22;;;20.60;55.10;;;;;;5039761;27;20037;-45
2021/12/14 05:28:05;;;;;;;2.55;1.73;;;20.60;55.00;;;;;;5037096;28;20025;-44
2021/12/14 05:30:37;;;;;;;3.03;2.05;;;20.70;54.80;;;;;;5039493;28;20104;-43
2021/12/14 05:33:06;;;;;;;3.78;1.60;;;20.70;54.60;;;;;;5039890;28;20059;-45
2021/12/14 05:35:32;;;;;;;4.28;2.15;;;20.70;54.50;;;;;;5039287;28;20041;-44
2021/12/14 05:38:00;;;;;;;3.20;1.70;;;20.60;54.60;;;;;;5039631;28;20025;-44
2021/12/14 05:43:14;;;;;;;4.18;2.10;;;20.50;55.10;;;;;;5040081;28;20056;-46
2021/12/14 05:45:49;;;;;;;3.78;2.03;;;20.60;54.90;;;;;;5039366;28;20045;-45
2021/12/14 05:48:23;;;;;;;3.45;2.05;;;20.60;54.80;;;;;;5041601;28;20026;-45
2021/12/14 05:50:53;;;;;;;3.30;1.73;;;20.60;54.60;;;;;;5039290;28;20047;-44
2021/12/14 05:53:25;;;;;;;2.70;1.83;;;20.60;54.40;;;;;;5039756;28;20073;-44
2021/12/14 05:55:51;;;;;;;3.70;2.20;;;20.50;54.50;;;;;;5039054;28;20041;-46
2021/12/14 05:58:19;;;;;;;2.63;1.88;;;20.40;54.70;;;;;;5105239;28;20030;-44
2021/12/14 06:00:47;;;;;;;3.30;1.92;;;20.50;54.90;;;;;;5110602;28;20047;-44
2021/12/14 06:03:16;;;;;;;2.95;2.08;;;20.50;54.80;;;;;;5059428;28;20029;-44
2021/12/14 06:05:42;;;;;;;2.95;1.80;;;20.60;54.80;;;;;;5058974;28;20120;-44
2021/12/14 06:08:08;;;;;;;3.47;2.17;;;20.60;54.60;;;;;;5059089;27;20018;-46
2021/12/14 06:10:34;;;;;;;3.40;2.10;;;20.50;54.50;;;;;;5059046;28;20025;-44
2021/12/14 06:13:01;;;;;;;2.45;1.95;;;20.40;54.60;;;;;;5059333;27;20033;-45
2021/12/14 06:15:29;;;;;;;2.60;2.10;;;20.40;54.80;;;;;;5058446;28;20041;-44
2021/12/14 06:17:55;;;;;;;4.40;2.13;;;20.50;54.80;;;;;;5128296;27;20048;-44
2021/12/14 06:20:24;;;;;;;2.78;2.05;;;20.60;54.80;;;;;;5059003;28;20033;-45
2021/12/14 06:22:52;;;;;;;3.10;2.20;;;20.60;54.70;;;;;;5059252;27;20112;-45
2021/12/14 06:25:23;;;;;;;2.70;1.80;;;20.50;54.40;;;;;;5058684;28;20029;-46
2021/12/14 06:27:50;;;;;;;3.22;2.05;;;20.40;54.40;;;;;;5059142;27;20522;-49
2021/12/14 06:30:22;;;;;;;3.83;2.38;;;20.40;54.50;;;;;;5058860;27;20144;-43
2021/12/14 06:33:03;;;;;;;3.95;2.17;;;20.40;54.70;;;;;;5058564;28;20539;-46
2021/12/14 06:35:37;;;;;;;3.35;2.13;;;20.50;54.70;;;;;;5058499;27;20061;-44
2021/12/14 06:38:30;;;;;;;3.38;2.30;;;20.60;54.80;;;;;;5058848;28;20438;-44
2021/12/14 06:40:57;;;;;;;2.95;2.10;;;20.60;54.50;;;;;;5058984;27;20029;-45
2021/12/14 06:43:32;;;;;;;3.20;2.03;;;20.40;54.40;;;;;;5057113;28;20025;-44
2021/12/14 06:46:02;;;;;;;3.53;1.92;;;20.40;54.70;;;;;;5058711;28;20025;-46
2021/12/14 06:48:33;;;;;;;4.70;2.17;;;20.50;54.70;;;;;;5058924;28;20029;-44
2021/12/14 06:51:12;;;;;;;3.00;1.98;;;20.50;54.60;;;;;;5057375;27;20035;-44
2021/12/14 06:53:38;;;;;;;2.60;2.08;;;20.60;54.70;;;;;;5058552;28;20035;-45
2021/12/14 06:56:07;;;;;;;4.30;2.10;;;20.50;54.40;;;;;;5058181;28;20044;-44
2021/12/14 06:58:36;;;;;;;3.13;2.38;;;20.50;54.40;;;;;;5057740;27;20032;-44
2021/12/14 07:01:12;;;;;;;3.00;2.10;;;20.40;54.60;;;;;;5056335;27;20390;-44
2021/12/14 07:03:50;;;;;;;4.40;2.28;;;20.40;54.70;;;;;;5058742;27;20021;-45
2021/12/14 07:06:23;;;;;;;;;;;20.50;54.50;;;;;;5123933;27;20033;-44
2021/12/14 07:08:49;;;;;;;2.92;1.85;;;20.60;54.40;;;;;;5056440;28;19904;-44
2021/12/14 07:11:23;;;;;;;3.63;2.30;;;20.60;54.60;;;;;;5058694;28;20524;-43
2021/12/14 07:13:50;;;;;;;3.03;2.00;;;20.50;54.20;;;;;;5056859;28;20108;-44
2021/12/14 07:16:31;;;;;;;3.50;2.20;;;20.40;54.30;;;;;;5059153;28;20040;-44
2021/12/14 07:18:59;;;;;;;2.35;1.83;;;20.40;54.40;;;;;;5057794;28;20028;-44
2021/12/14 07:21:40;;;;;;;4.03;2.00;;;20.50;54.60;;;;;;5057672;27;20774;-44
2021/12/14 07:24:28;;;;;;;3.20;2.28;;;20.50;54.40;;;;;;5058528;27;20052;-44
2021/12/14 07:27:13;;;;;;;2.75;1.77;;;20.60;54.50;;;;;;5058238;27;20029;-45
2021/12/14 07:29:39;;;;;;;2.60;2.10;;;20.50;54.30;;;;;;5056857;28;20032;-43
2021/12/14 07:32:05;;;;;;;3.08;2.10;;;20.50;54.20;;;;;;5058534;27;20038;-46
2021/12/14 07:34:31;;;;;;;2.70;2.20;;;20.40;54.30;;;;;;5058246;28;20044;-44
2021/12/14 07:36:57;;;;;;;3.72;2.33;;;20.50;54.50;;;;;;5057956;27;20033;-45
2021/12/14 07:39:23;;;;;;;2.67;1.95;;;20.50;54.40;;;;;;5056993;28;20021;-44
2021/12/14 07:41:54;;;;;;;3.33;2.20;;;20.50;54.40;;;;;;5058085;28;20025;-44
2021/12/14 07:44:23;;;;;;;3.70;2.00;;;20.60;54.40;;;;;;5057267;28;20092;-44
2021/12/14 07:46:57;;;;;;;3.13;2.10;;;20.50;54.20;;;;;;5057701;28;20040;-44
2021/12/14 07:49:30;;;;;;;4.25;2.53;;;20.40;54.10;;;;;;5055423;28;20052;-44
2021/12/14 07:52:03;;;;;;;2.75;2.00;;;20.40;54.40;;;;;;5055329;28;20033;-43
2021/12/14 07:54:32;;;;;;;2.78;1.92;;;20.50;54.40;;;;;;5058357;28;20190;-45
2021/12/14 07:57:01;;;;;;;4.13;2.40;;;20.60;54.30;;;;;;5057620;28;20033;-45
2021/12/14 07:59:39;;;;;;;3.28;2.33;;;20.60;54.30;;;;;;5056878;27;20764;-44
2021/12/14 08:02:23;;;;;;;4.13;2.17;;;20.60;54.10;;;;;;5133420;27;20055;-45
2021/12/14 08:04:56;;;;;;;3.60;2.47;;;20.50;54.00;;;;;;5162651;27;20201;-44
2021/12/14 08:07:33;;;;;;;4.03;2.30;;;20.40;54.10;;;;;;5162513;27;20023;-45
2021/12/14 08:10:07;;;;;;;3.10;2.15;;;20.40;54.40;;;;;;5160292;27;20030;-45
2021/12/14 08:12:43;;;;;;;2.78;2.10;;;20.50;54.30;;;;;;5162569;27;20026;-45
2021/12/14 08:15:41;;;;;;;2.72;2.08;;;20.50;54.20;;;;;;5143939;27;20025;-46
2021/12/14 08:18:12;;;;;;;4.07;2.47;;;20.60;54.20;;;;;;5141093;27;20121;-43
2021/12/14 08:20:46;;;;;;;4.03;2.63;;;20.50;53.90;;;;;;5161246;27;20034;-45
2021/12/14 08:23:24;;;;;;;3.53;2.20;;;20.40;54.00;;;;;;5162497;27;20022;-44
2021/12/14 08:25:55;;;;;;;3.70;2.53;;;20.50;54.30;;;;;;5162559;27;20029;-44
2021/12/14 08:28:21;;;;;;;3.78;2.40;;;20.50;54.20;;;;;;5162030;27;20030;-46
2021/12/14 08:31:03;;;;;;;2.88;2.30;;;20.60;54.10;;;;;;5160747;27;20041;-47
2021/12/14 08:33:30;;;;;;;2.80;2.08;;;20.60;54.10;;;;;;5160016;27;20027;-44
2021/12/14 08:35:59;;;;;;;2.85;1.95;;;20.60;53.90;;;;;;5162016;27;20050;-44
2021/12/14 08:38:27;;;;;;;3.42;2.42;;;20.50;53.90;;;;;;5162068;27;20111;-44
2021/12/14 08:40:57;;;;;;;3.20;2.15;;;20.50;54.20;;;;;;5161534;27;20030;-44
2021/12/14 08:43:33;;;;;;;3.25;2.05;;;20.50;54.20;;;;;;5162001;27;20031;-45
2021/12/14 08:46:03;;;;;;;3.45;2.13;;;20.60;54.10;;;;;;5143084;27;20117;-45
2021/12/14 08:48:32;;;;;;;2.95;2.10;;;20.60;54.10;;;;;;5161007;27;20038;-43
2021/12/14 08:51:04;;;;;;;3.33;2.22;;;20.60;53.90;;;;;;5160428;27;20046;-45
2021/12/14 08:53:35;;;;;;;3.33;2.33;;;20.50;53.80;;;;;;5161834;27;20046;-44
2021/12/14 08:56:03;;;;;;;3.35;2.17;;;20.50;54.00;;;;;;5162623;27;20149;-44
2021/12/14 08:58:29;;;;;;;3.70;2.17;;;20.50;54.10;;;;;;5165832;27;20112;-44
2021/12/14 09:01:07;;;;;;;2.97;2.10;;;20.60;53.90;;;;;;5164844;27;20051;-46
2021/12/14 09:03:36;;;;;;;3.17;2.10;;;20.60;54.00;;;;;;5165831;27;20031;-44
2021/12/14 09:06:07;;;;;;;2.92;2.05;;;20.60;54.00;;;;;;5165901;27;20030;-46
2021/12/14 09:08:34;;;;;;;3.25;2.08;;;20.60;53.80;;;;;;5165731;27;20026;-43
2021/12/14 09:11:01;;;;;;;3.47;2.20;;;20.50;53.80;;;;;;5165530;27;20023;-44
2021/12/14 09:13:27;;;;;;;2.58;1.88;;;20.50;54.00;;;;;;5165968;27;20493;-44
2021/12/14 09:16:05;;;;;;;3.73;2.30;;;20.60;54.00;;;;;;5165764;27;20098;-44
2021/12/14 09:18:33;;;;;;;3.67;2.20;;;20.60;53.90;;;;;;5144721;27;20412;-44
2021/12/14 09:21:11;;;;;;;2.45;2.05;;;20.70;54.00;;;;;;5165282;27;20278;-43
2021/12/14 09:23:40;;;;;;;3.00;2.35;;;20.60;53.70;;;;;;5164144;27;20046;-45
2021/12/14 09:26:08;;;;;;;2.75;2.17;;;20.60;53.70;;;;;;5165109;27;20031;-45
2021/12/14 09:28:35;;;;;;;3.30;2.40;;;20.50;53.90;;;;;;5165343;27;20082;-44
2021/12/14 09:31:04;;;;;;;2.60;2.28;;;20.50;54.00;;;;;;5145938;27;20019;-43
2021/12/14 09:33:31;;;;;;;3.85;2.25;;;20.60;54.00;;;;;;5165598;27;20039;-44
2021/12/14 09:35:57;;;;;;;3.70;2.58;;;20.60;53.80;;;;;;5165336;27;20129;-44
2021/12/14 09:38:32;;;;;;;2.60;2.10;;;20.60;53.80;;;;;;5165402;27;20052;-44
2021/12/14 09:40:59;;;;;;;3.33;2.33;;;20.60;53.50;;;;;;5164745;27;20031;-43
2021/12/14 09:43:25;;;;;;;3.97;2.30;;;20.50;53.80;;;;;;5165238;27;20074;-45
2021/12/14 09:45:54;;;;;;;2.90;2.20;;;20.60;53.90;;;;;;5164665;27;20035;-44
2021/12/14 09:48:25;;;;;;;3.30;2.30;;;20.60;53.80;;;;;;5145028;27;20558;-43
2021/12/14 09:50:51;;;;;;;3.75;2.30;;;20.60;53.70;;;;;;5162485;27;20082;-45
2021/12/14 09:53:21;;;;;;;2.87;2.17;;;20.70;53.70;;;;;;5164716;27;20048;-44
2021/12/14 09:55:47;;;;;;;2.72;1.95;;;20.60;53.60;;;;;;5164467;27;20034;-43
2021/12/14 09:58:17;;;;;;;3.75;2.17;;;20.50;53.60;;;;;;5165717;27;20091;-43
2021/12/14 10:00:55;;;;;;;3.00;2.10;;;20.60;53.80;;;;;;5163496;27;20461;-45
2021/12/14 10:03:22;;;;;;;2.88;2.10;;;20.60;53.80;;;;;;5164548;27;20031;-43
2021/12/14 10:05:51;;;;;;;3.22;2.13;;;20.70;53.80;;;;;;5165051;27;20050;-44
2021/12/14 10:08:25;;;;;;;4.40;2.30;;;20.70;53.70;;;;;;5164118;27;20046;-46
2021/12/14 10:11:37;;;;;;;3.45;2.38;;;20.60;53.50;;;;;;5163896;27;20030;-46
2021/12/14 10:14:04;;;;;;;2.90;2.20;;;20.60;53.50;;;;;;5163560;27;20057;-45
2021/12/14 10:16:30;;;;;;;;;;;20.50;53.60;;;;;;5165072;27;20494;-47
2021/12/14 10:18:58;;;;;;;3.03;1.95;;;20.60;53.70;;;;;;5164420;27;19942;-47
2021/12/14 10:21:54;;;;;;;2.72;1.80;;;20.60;53.70;;;;;;5163681;27;20167;-44
2021/12/14 10:24:21;;;;;;;3.10;2.25;;;20.70;53.70;;;;;;5164514;27;20042;-44
2021/12/14 10:26:51;;;;;;;3.63;2.17;;;20.70;53.50;;;;;;5164473;27;20022;-45
2021/12/14 10:29:17;;;;;;;2.55;1.80;;;20.60;53.40;;;;;;5164234;27;20035;-46
2021/12/14 10:31:49;;;;;;;2.92;1.85;;;20.60;53.70;;;;;;5163501;27;20015;-44
2021/12/14 10:34:22;;;;;;;4.00;2.55;;;20.60;53.70;;;;;;5163984;27;20034;-44
2021/12/14 10:36:54;;;;;;;3.05;2.20;;;20.60;53.60;;;;;;5161888;27;20056;-45
2021/12/14 10:39:39;;;;;;;3.83;2.40;;;20.70;53.60;;;;;;5162584;27;20041;-45
2021/12/14 10:44:57;;;;;;;3.30;2.25;;;20.60;53.20;;;;;;5162684;27;20688;-45
2021/12/14 10:47:24;;;;;;;4.72;2.60;;;20.50;53.30;;;;;;5163756;27;20031;-44
2021/12/14 10:49:51;;;;;;;2.83;2.13;;;20.60;53.60;;;;;;5162965;27;20052;-45
2021/12/14 10:52:20;;;;;;;2.78;2.05;;;20.60;53.50;;;;;;5163244;27;20551;-44
2021/12/14 10:54:55;;;;;;;3.67;2.20;;;20.70;53.50;;;;;;5163899;27;20038;-48
2021/12/14 10:57:24;;;;;;;3.47;2.25;;;20.70;53.50;;;;;;5161519;27;20078;-44
2021/12/14 10:59:51;;;;;;;5.00;2.10;;;20.60;53.20;;;;;;5162915;27;20030;-45
2021/12/14 11:02:20;;;;;;;3.72;2.25;;;20.60;53.20;;;;;;5078738;27;20076;-44
2021/12/14 11:04:55;;;;;;;2.75;2.10;;;20.50;53.30;;;;;;5058174;28;20124;-46
2021/12/14 11:07:39;;;;;;;2.75;2.03;;;20.60;53.50;;;;;;5058247;28;20095;-44
2021/12/14 11:10:30;;;;;;;2.80;2.30;;;20.60;53.90;;;;;;5058250;27;20033;-45
2021/12/14 11:12:59;;;;;;;3.17;2.20;;;20.70;53.40;;;;;;5057944;28;20128;-46
2021/12/14 11:15:34;;;;;;;3.53;2.33;;;20.70;53.40;;;;;;5057896;28;20039;-45
2021/12/14 11:18:14;;;;;;;2.85;2.03;;;20.70;53.30;;;;;;5056935;28;20121;-45
2021/12/14 11:20:46;;;;;;;2.63;1.80;;;20.60;53.20;;;;;;5056460;28;20032;-45
2021/12/14 11:23:26;;;;;;;4.00;2.38;;;20.60;53.40;;;;;;5058284;27;20892;-44
2021/12/14 11:26:06;;;;;;;3.08;2.20;;;20.60;53.30;;;;;;5057735;28;20036;-44
2021/12/14 11:28:34;;;;;;;3.03;2.22;;;20.70;53.30;;;;;;5056236;28;20039;-44
2021/12/14 11:31:03;;;;;;;2.50;1.77;;;20.70;53.40;;;;;;5057338;27;20033;-47
2021/12/14 11:33:34;;;;;;;2.75;2.13;;;20.60;53.10;;;;;;5058020;27;20025;-44
2021/12/14 11:36:14;;;;;;;3.72;2.10;;;20.60;53.10;;;;;;5057560;27;20131;-46
2021/12/14 11:38:53;;;;;;;2.55;1.90;;;20.60;53.30;;;;;;5057736;28;20029;-44
2021/12/14 11:41:22;;;;;;;3.00;2.30;;;20.60;53.30;;;;;;5057610;28;20029;-45
2021/12/14 11:44:00;;;;;;;3.17;2.08;;;20.70;53.40;;;;;;5057318;28;20024;-50
2021/12/14 11:46:29;;;;;;;2.95;2.25;;;20.70;53.30;;;;;;5056048;28;20029;-46
2021/12/14 11:48:57;;;;;;;3.70;2.60;;;20.70;53.10;;;;;;5056202;28;20021;-46
2021/12/14 11:51:24;;;;;;;3.15;2.03;;;20.60;53.00;;;;;;5054861;28;20032;-45
2021/12/14 11:53:51;;;;;;;4.10;2.53;;;20.50;53.20;;;;;;5057828;28;20032;-44
2021/12/14 11:56:19;;;;;;;3.78;2.40;;;20.60;53.30;;;;;;5057425;28;20040;-44
2021/12/14 11:58:51;;;;;;;2.88;2.33;;;20.60;53.20;;;;;;5057353;27;20049;-45
2021/12/14 12:01:22;;;;;;;3.17;2.28;;;20.70;53.30;;;;;;5057229;27;20061;-46
2021/12/14 12:03:55;;;;;;;3.40;2.42;;;20.70;53.30;;;;;;5063925;27;20029;-46
2021/12/14 12:09:42;;;;;;;3.88;2.60;;;20.60;52.90;;;;;;5056226;28;20036;-45
2021/12/14 12:12:28;;;;;;;4.43;2.88;;;20.50;53.10;;;;;;5057267;27;20569;-46
2021/12/14 12:14:57;;;;;;;3.78;2.60;;;20.60;53.30;;;;;;5056679;28;20040;-46
2021/12/14 12:17:26;;;;;;;3.80;2.70;;;20.60;53.20;;;;;;5057089;28;20029;-47
2021/12/14 12:20:02;;;;;;;3.08;2.30;;;20.70;53.10;;;;;;5058613;27;20021;-46
2021/12/14 12:22:34;;;;;;;4.53;2.78;;;20.70;53.10;;;;;;5056608;28;20031;-43
2021/12/14 12:25:00;;;;;;;3.15;2.45;;;20.60;52.90;;;;;;5057077;28;20025;-46
2021/12/14 12:27:57;;;;;;;3.75;2.72;;;20.60;53.00;;;;;;5057059;28;20029;-43
2021/12/14 12:30:36;;;;;;;3.70;2.90;;;20.50;53.20;;;;;;5064682;28;20041;-43
2021/12/14 12:33:07;;;;;;;4.72;3.08;;;20.60;53.20;;;;;;5060568;28;20050;-44
2021/12/14 12:36:12;;;;;;;4.22;2.78;;;20.70;53.10;;;;;;5060879;27;20576;-44
2021/12/14 12:38:49;;;;;;;3.70;2.78;;;20.70;53.60;;;;;;5058760;28;20028;-45
2021/12/14 12:41:39;;;;;;;4.03;2.88;;;20.60;52.90;;;;;;5060120;28;20132;-44
2021/12/14 12:44:09;;;;;;;4.07;2.92;;;20.60;53.00;;;;;;5060565;28;20099;-43
2021/12/14 12:46:40;;;;;;;4.60;3.22;;;20.60;53.10;;;;;;5060732;28;20111;-44
2021/12/14 12:49:18;;;;;;;4.28;2.92;;;20.60;53.00;;;;;;5060202;28;20025;-44
2021/12/14 12:52:12;;;;;;;4.75;3.50;;;20.70;52.90;;;;;;5059474;28;20136;-43
2021/12/14 12:55:11;;;;;;;4.88;3.40;;;20.70;52.90;;;;;;5059690;28;20036;-46
2021/12/14 12:57:43;;;;;;;5.15;3.10;;;20.60;52.70;;;;;;5065126;28;20117;-44
2021/12/14 13:00:28;;;;;;;4.55;3.22;;;20.50;52.80;;;;;;5060283;28;20063;-44
2021/12/14 13:02:56;;;;;;;5.25;3.30;;;20.60;53.10;;;;;;5093989;28;20045;-47
2021/12/14 13:05:42;;;;;;;5.38;3.35;;;20.70;52.90;;;;;;5039613;28;20150;-45
2021/12/14 13:08:33;;;;;;;3.83;3.05;;;20.70;52.80;;;;;;5033518;28;20033;-43
2021/12/14 13:11:08;;;;;;;5.00;3.50;;;20.70;52.80;;;;;;5036277;28;20045;-45
2021/12/14 13:13:52;;;;;;;4.60;3.38;;;20.70;52.70;;;;;;5038847;28;20018;-44
2021/12/14 13:16:20;;;;;;;6.25;3.55;;;20.60;52.60;;;;;;5039645;28;20033;-44
2021/12/14 13:19:13;;;;;;;4.32;3.30;;;20.60;52.90;;;;;;5040056;28;20089;-44
2021/12/14 13:21:48;;;;;;;4.63;3.70;;;20.60;52.90;;;;;;5044565;27;20032;-46
2021/12/14 13:24:19;;;;;;;5.57;3.58;;;20.70;52.90;;;;;;5038286;28;20124;-45
2021/12/14 13:27:06;;;;;;;4.70;3.42;;;20.70;52.80;;;;;;5036862;28;20033;-46
2021/12/14 13:29:54;;;;;;;5.15;3.50;;;20.70;52.60;;;;;;5039183;28;20029;-44
2021/12/14 13:32:37;;;;;;;5.07;3.67;;;20.60;52.50;;;;;;5039925;28;20035;-46
2021/12/14 13:35:22;;;;;;;4.68;3.45;;;20.50;52.60;;;;;;5103813;28;20108;-44
2021/12/14 13:37:49;;;;;;;5.13;3.58;;;20.60;52.90;;;;;;5038005;28;20053;-44
2021/12/14 13:40:37;;;;;;;5.93;3.80;;;20.60;52.80;;;;;;5039562;28;20057;-45
2021/12/14 13:43:23;;;;;;;2.83;2.30;;;20.70;52.70;;;;;;5038006;28;20643;-45
2021/12/14 13:45:57;;;;;;;5.18;3.60;;;20.70;52.80;;;;;;5039791;28;20041;-44